sensor_id;sensor_type;location;lat;lon;timestamp;pressure;altitude;pressure_sealevel;temperature;humidity
20111;BME280;10216;42.658;23.248;2023-07-31T00:01:01;93436.88;;;19.17;100.00
20111;BME280;10216;42.658;23.248;2023-07-31T00:03:26;93444.84;;;19.22;100.00
20111;BME280;10216;42.658;23.248;2023-07-31T00:05:51;93444.56;;;19.11;100.00
20111;BME280;10216;42.658;23.248;2023-07-31T00:08:17;93441.28;;;19.04;100.00
20111;BME280;10216;42.658;23.248;2023-07-31T00:10:42;93450.25;;;19.08;100.00
20111;BME280;10216;42.658;23.248;2023-07-31T00:13:07;93441.38;;;19.09;100.00
20111;BME280;10216;42.658;23.248;2023-07-31T00:15:33;93448.78;;;19.13;100.00
20111;BME280;10216;42.658;23.248;2023-07-31T00:17:58;93446.75;;;19.15;100.00
20111;BME280;10216;42.658;23.248;2023-07-31T00:20:24;93441.38;;;19.09;100.00
20111;BME280;10216;42.658;23.248;2023-07-31T00:22:49;93440.31;;;19.29;100.00
20111;BME280;10216;42.658;23.248;2023-07-31T00:25:15;93425.59;;;19.23;100.00
20111;BME280;10216;42.658;23.248;2023-07-31T00:27:40;93429.00;;;19.23;100.00
20111;BME280;10216;42.658;23.248;2023-07-31T00:30:10;93419.34;;;19.24;99.98
20111;BME280;10216;42.658;23.248;2023-07-31T00:32:35;93405.22;;;19.20;98.76
20111;BME280;10216;42.658;23.248;2023-07-31T00:35:01;93397.88;;;19.28;98.42
20111;BME280;10216;42.658;23.248;2023-07-31T00:37:27;93401.50;;;19.27;100.00
20111;BME280;10216;42.658;23.248;2023-07-31T00:39:52;93394.38;;;19.23;100.00
20111;BME280;10216;42.658;23.248;2023-07-31T00:42:17;93398.44;;;19.19;96.80
20111;BME280;10216;42.658;23.248;2023-07-31T00:44:43;93402.72;;;19.25;99.04
20111;BME280;10216;42.658;23.248;2023-07-31T00:47:08;93411.00;;;19.33;98.78
20111;BME280;10216;42.658;23.248;2023-07-31T00:49:33;93408.94;;;19.24;99.77
20111;BME280;10216;42.658;23.248;2023-07-31T00:51:59;93407.13;;;19.24;99.23
20111;BME280;10216;42.658;23.248;2023-07-31T00:54:25;93404.31;;;19.26;97.78
20111;BME280;10216;42.658;23.248;2023-07-31T00:56:50;93398.22;;;19.32;97.95
20111;BME280;10216;42.658;23.248;2023-07-31T00:59:18;93396.19;;;19.34;97.62
20111;BME280;10216;42.658;23.248;2023-07-31T01:01:44;93403.41;;;19.32;97.15
20111;BME280;10216;42.658;23.248;2023-07-31T01:04:10;93402.41;;;19.33;98.04
20111;BME280;10216;42.658;23.248;2023-07-31T01:06:42;93403.63;;;19.19;97.45
20111;BME280;10216;42.658;23.248;2023-07-31T01:09:21;93402.28;;;19.28;98.08
20111;BME280;10216;42.658;23.248;2023-07-31T01:11:53;93395.59;;;19.32;98.56
20111;BME280;10216;42.658;23.248;2023-07-31T01:14:21;93395.06;;;19.30;98.62
20111;BME280;10216;42.658;23.248;2023-07-31T01:16:46;93385.19;;;19.32;99.82
20111;BME280;10216;42.658;23.248;2023-07-31T01:19:14;93387.69;;;19.27;98.13
20111;BME280;10216;42.658;23.248;2023-07-31T01:27:19;93390.06;;;19.28;97.69
20111;BME280;10216;42.658;23.248;2023-07-31T01:30:05;93377.38;;;19.20;98.94
20111;BME280;10216;42.658;23.248;2023-07-31T01:32:36;93388.47;;;19.27;99.55
20111;BME280;10216;42.658;23.248;2023-07-31T01:35:05;93376.59;;;19.20;98.78
20111;BME280;10216;42.658;23.248;2023-07-31T01:37:31;93386.91;;;19.26;99.26
20111;BME280;10216;42.658;23.248;2023-07-31T01:39:56;93379.09;;;19.26;99.31
20111;BME280;10216;42.658;23.248;2023-07-31T01:42:21;93378.06;;;19.16;100.00
20111;BME280;10216;42.658;23.248;2023-07-31T01:44:47;93386.31;;;19.13;100.00
20111;BME280;10216;42.658;23.248;2023-07-31T01:47:12;93383.28;;;19.16;100.00
20111;BME280;10216;42.658;23.248;2023-07-31T01:49:38;93378.88;;;19.16;100.00
20111;BME280;10216;42.658;23.248;2023-07-31T01:52:03;93377.84;;;19.29;99.97
20111;BME280;10216;42.658;23.248;2023-07-31T01:54:29;93385.44;;;19.30;100.00
20111;BME280;10216;42.658;23.248;2023-07-31T01:56:54;93383.97;;;19.34;98.98
20111;BME280;10216;42.658;23.248;2023-07-31T01:59:19;93378.06;;;19.39;98.42
20111;BME280;10216;42.658;23.248;2023-07-31T02:01:45;93390.22;;;19.45;97.10
20111;BME280;10216;42.658;23.248;2023-07-31T02:04:10;93385.56;;;19.47;96.75
20111;BME280;10216;42.658;23.248;2023-07-31T02:06:35;93388.75;;;19.49;97.01
20111;BME280;10216;42.658;23.248;2023-07-31T02:09:01;93395.09;;;19.53;96.40
20111;BME280;10216;42.658;23.248;2023-07-31T02:11:26;93393.97;;;19.49;97.03
20111;BME280;10216;42.658;23.248;2023-07-31T02:13:51;93393.16;;;19.48;97.24
20111;BME280;10216;42.658;23.248;2023-07-31T02:16:17;93396.69;;;19.54;97.17
20111;BME280;10216;42.658;23.248;2023-07-31T02:18:42;93394.97;;;19.60;96.07
20111;BME280;10216;42.658;23.248;2023-07-31T02:21:07;93396.91;;;19.64;96.50
20111;BME280;10216;42.658;23.248;2023-07-31T02:23:33;93395.53;;;19.62;97.52
20111;BME280;10216;42.658;23.248;2023-07-31T02:25:58;93393.63;;;19.69;95.84
20111;BME280;10216;42.658;23.248;2023-07-31T02:28:23;93399.19;;;19.72;94.79
20111;BME280;10216;42.658;23.248;2023-07-31T02:30:50;93388.88;;;19.66;95.13
20111;BME280;10216;42.658;23.248;2023-07-31T02:33:16;93401.53;;;19.74;95.79
20111;BME280;10216;42.658;23.248;2023-07-31T02:35:41;93395.78;;;19.72;95.50
20111;BME280;10216;42.658;23.248;2023-07-31T02:38:07;93401.78;;;19.72;95.13
20111;BME280;10216;42.658;23.248;2023-07-31T02:40:32;93391.13;;;19.74;93.84
20111;BME280;10216;42.658;23.248;2023-07-31T02:42:58;93392.25;;;19.78;93.20
20111;BME280;10216;42.658;23.248;2023-07-31T02:45:23;93409.16;;;19.87;92.43
20111;BME280;10216;42.658;23.248;2023-07-31T02:47:48;93407.22;;;19.94;92.20
20111;BME280;10216;42.658;23.248;2023-07-31T02:50:14;93409.91;;;19.99;92.09
20111;BME280;10216;42.658;23.248;2023-07-31T02:52:39;93412.75;;;19.98;91.42
20111;BME280;10216;42.658;23.248;2023-07-31T02:55:05;93416.16;;;19.98;90.41
20111;BME280;10216;42.658;23.248;2023-07-31T02:57:31;93414.34;;;19.99;90.69
20111;BME280;10216;42.658;23.248;2023-07-31T02:59:56;93418.53;;;20.00;91.03
20111;BME280;10216;42.658;23.248;2023-07-31T03:02:22;93418.97;;;19.97;92.16
20111;BME280;10216;42.658;23.248;2023-07-31T03:04:47;93415.81;;;19.95;91.75
20111;BME280;10216;42.658;23.248;2023-07-31T03:07:13;93417.84;;;20.04;91.36
20111;BME280;10216;42.658;23.248;2023-07-31T03:09:38;93412.75;;;20.09;90.54
20111;BME280;10216;42.658;23.248;2023-07-31T03:12:04;93422.94;;;20.11;90.75
20111;BME280;10216;42.658;23.248;2023-07-31T03:14:29;93422.47;;;20.14;91.13
20111;BME280;10216;42.658;23.248;2023-07-31T03:16:54;93427.25;;;20.17;89.98
20111;BME280;10216;42.658;23.248;2023-07-31T03:19:20;93426.19;;;20.18;89.73
20111;BME280;10216;42.658;23.248;2023-07-31T03:21:45;93422.03;;;20.17;90.24
20111;BME280;10216;42.658;23.248;2023-07-31T03:24:11;93427.56;;;20.20;89.74
20111;BME280;10216;42.658;23.248;2023-07-31T03:26:37;93434.16;;;20.23;88.98
20111;BME280;10216;42.658;23.248;2023-07-31T03:29:03;93439.09;;;20.24;88.93
20111;BME280;10216;42.658;23.248;2023-07-31T03:31:29;93439.47;;;20.28;88.77
20111;BME280;10216;42.658;23.248;2023-07-31T03:33:54;93435.16;;;20.22;88.21
20111;BME280;10216;42.658;23.248;2023-07-31T03:36:19;93438.09;;;20.25;88.07
20111;BME280;10216;42.658;23.248;2023-07-31T03:38:46;93437.66;;;20.28;88.59
20111;BME280;10216;42.658;23.248;2023-07-31T03:41:11;93442.50;;;20.25;87.92
20111;BME280;10216;42.658;23.248;2023-07-31T03:43:37;93447.28;;;20.28;88.26
20111;BME280;10216;42.658;23.248;2023-07-31T03:46:02;93458.28;;;20.30;87.70
20111;BME280;10216;42.658;23.248;2023-07-31T03:48:28;93453.88;;;20.31;87.34
20111;BME280;10216;42.658;23.248;2023-07-31T03:50:54;93460.56;;;20.15;88.46
20111;BME280;10216;42.658;23.248;2023-07-31T03:53:19;93469.72;;;20.17;87.99
20111;BME280;10216;42.658;23.248;2023-07-31T03:55:45;93463.38;;;20.25;88.46
20111;BME280;10216;42.658;23.248;2023-07-31T03:58:10;93458.50;;;20.28;88.21
20111;BME280;10216;42.658;23.248;2023-07-31T04:00:35;93460.31;;;20.28;87.91
20111;BME280;10216;42.658;23.248;2023-07-31T04:03:01;93451.13;;;20.25;87.17
20111;BME280;10216;42.658;23.248;2023-07-31T04:05:26;93461.00;;;20.23;86.55
20111;BME280;10216;42.658;23.248;2023-07-31T04:07:51;93475.28;;;20.21;87.51
20111;BME280;10216;42.658;23.248;2023-07-31T04:10:17;93472.09;;;20.19;87.71
20111;BME280;10216;42.658;23.248;2023-07-31T04:12:42;93463.38;;;20.25;86.88
20111;BME280;10216;42.658;23.248;2023-07-31T04:15:08;93466.91;;;20.31;86.75
20111;BME280;10216;42.658;23.248;2023-07-31T04:17:34;93467.81;;;20.36;86.74
20111;BME280;10216;42.658;23.248;2023-07-31T04:19:59;93476.09;;;20.33;87.42
20111;BME280;10216;42.658;23.248;2023-07-31T04:22:24;93472.56;;;20.39;85.70
20111;BME280;10216;42.658;23.248;2023-07-31T04:24:50;93473.84;;;20.37;85.03
20111;BME280;10216;42.658;23.248;2023-07-31T04:27:15;93487.41;;;20.39;85.67
20111;BME280;10216;42.658;23.248;2023-07-31T04:29:40;93482.22;;;20.15;86.59
20111;BME280;10216;42.658;23.248;2023-07-31T04:32:08;93486.84;;;20.25;85.96
20111;BME280;10216;42.658;23.248;2023-07-31T04:34:33;93485.03;;;20.25;85.31
20111;BME280;10216;42.658;23.248;2023-07-31T04:36:58;93476.09;;;20.33;84.81
20111;BME280;10216;42.658;23.248;2023-07-31T04:39:24;93482.44;;;20.37;85.34
20111;BME280;10216;42.658;23.248;2023-07-31T04:41:49;93473.94;;;20.42;84.56
20111;BME280;10216;42.658;23.248;2023-07-31T04:44:14;93475.47;;;20.54;84.87
20111;BME280;10216;42.658;23.248;2023-07-31T04:46:40;93474.69;;;20.54;84.10
20111;BME280;10216;42.658;23.248;2023-07-31T04:49:05;93470.94;;;20.61;84.58
20111;BME280;10216;42.658;23.248;2023-07-31T04:51:31;93469.69;;;20.64;83.55
20111;BME280;10216;42.658;23.248;2023-07-31T04:53:56;93471.72;;;20.74;82.64
20111;BME280;10216;42.658;23.248;2023-07-31T04:56:22;93472.00;;;20.89;82.04
20111;BME280;10216;42.658;23.248;2023-07-31T04:58:47;93458.03;;;20.83;82.58
20111;BME280;10216;42.658;23.248;2023-07-31T05:01:12;93454.28;;;20.91;81.46
20111;BME280;10216;42.658;23.248;2023-07-31T05:03:38;93458.53;;;20.80;81.49
20111;BME280;10216;42.658;23.248;2023-07-31T05:06:03;93476.00;;;20.80;81.31
20111;BME280;10216;42.658;23.248;2023-07-31T05:08:29;93468.81;;;20.87;81.48
20111;BME280;10216;42.658;23.248;2023-07-31T05:10:54;93468.69;;;20.93;81.35
20111;BME280;10216;42.658;23.248;2023-07-31T05:13:20;93467.09;;;20.92;81.47
20111;BME280;10216;42.658;23.248;2023-07-31T05:15:45;93475.13;;;21.02;80.67
20111;BME280;10216;42.658;23.248;2023-07-31T05:18:10;93475.28;;;21.24;79.79
20111;BME280;10216;42.658;23.248;2023-07-31T05:20:36;93467.16;;;21.09;80.20
20111;BME280;10216;42.658;23.248;2023-07-31T05:23:01;93468.16;;;21.08;80.30
20111;BME280;10216;42.658;23.248;2023-07-31T05:25:27;93464.81;;;20.96;79.70
20111;BME280;10216;42.658;23.248;2023-07-31T05:27:52;93465.19;;;20.88;80.63
20111;BME280;10216;42.658;23.248;2023-07-31T05:30:17;93467.44;;;20.96;80.93
20111;BME280;10216;42.658;23.248;2023-07-31T05:32:43;93475.22;;;21.08;81.07
20111;BME280;10216;42.658;23.248;2023-07-31T05:35:08;93473.75;;;21.00;80.58
20111;BME280;10216;42.658;23.248;2023-07-31T05:37:34;93472.09;;;20.94;80.28
20111;BME280;10216;42.658;23.248;2023-07-31T05:39:59;93471.81;;;21.07;80.23
20111;BME280;10216;42.658;23.248;2023-07-31T05:42:25;93477.91;;;21.24;79.30
20111;BME280;10216;42.658;23.248;2023-07-31T05:44:50;93473.31;;;21.31;78.00
20111;BME280;10216;42.658;23.248;2023-07-31T05:47:16;93474.00;;;21.27;78.03
20111;BME280;10216;42.658;23.248;2023-07-31T05:49:41;93471.31;;;21.22;78.29
20111;BME280;10216;42.658;23.248;2023-07-31T05:52:07;93474.13;;;21.49;76.32
20111;BME280;10216;42.658;23.248;2023-07-31T05:54:32;93482.59;;;21.56;74.79
20111;BME280;10216;42.658;23.248;2023-07-31T05:56:58;93471.69;;;21.59;75.79
20111;BME280;10216;42.658;23.248;2023-07-31T05:59:24;93478.50;;;21.60;75.76
20111;BME280;10216;42.658;23.248;2023-07-31T06:01:49;93481.09;;;21.76;75.66
20111;BME280;10216;42.658;23.248;2023-07-31T06:04:14;93479.97;;;21.56;75.11
20111;BME280;10216;42.658;23.248;2023-07-31T06:06:40;93480.53;;;21.58;75.31
20111;BME280;10216;42.658;23.248;2023-07-31T06:09:05;93489.41;;;21.57;75.33
20111;BME280;10216;42.658;23.248;2023-07-31T06:11:31;93490.34;;;21.51;73.37
20111;BME280;10216;42.658;23.248;2023-07-31T06:13:56;93497.03;;;21.75;73.38
20111;BME280;10216;42.658;23.248;2023-07-31T06:16:22;93493.13;;;21.94;71.79
20111;BME280;10216;42.658;23.248;2023-07-31T06:18:48;93492.47;;;22.37;69.71
20111;BME280;10216;42.658;23.248;2023-07-31T06:21:13;93498.84;;;22.08;69.41
20111;BME280;10216;42.658;23.248;2023-07-31T06:23:39;93498.75;;;22.19;69.72
20111;BME280;10216;42.658;23.248;2023-07-31T06:26:04;93498.34;;;22.28;68.60
20111;BME280;10216;42.658;23.248;2023-07-31T06:28:31;93500.34;;;22.20;68.41
20111;BME280;10216;42.658;23.248;2023-07-31T06:30:57;93502.16;;;22.37;67.76
20111;BME280;10216;42.658;23.248;2023-07-31T06:33:23;93495.03;;;22.32;67.38
20111;BME280;10216;42.658;23.248;2023-07-31T06:35:48;93499.75;;;22.35;67.78
20111;BME280;10216;42.658;23.248;2023-07-31T06:38:14;93499.94;;;22.12;67.73
20111;BME280;10216;42.658;23.248;2023-07-31T06:40:39;93501.94;;;22.05;69.46
20111;BME280;10216;42.658;23.248;2023-07-31T06:43:05;93509.09;;;22.09;68.95
20111;BME280;10216;42.658;23.248;2023-07-31T06:45:35;93511.38;;;22.23;68.36
20111;BME280;10216;42.658;23.248;2023-07-31T06:48:01;93501.19;;;22.43;68.06
20111;BME280;10216;42.658;23.248;2023-07-31T06:50:31;93501.31;;;22.53;66.73
20111;BME280;10216;42.658;23.248;2023-07-31T06:52:56;93506.63;;;22.58;66.74
20111;BME280;10216;42.658;23.248;2023-07-31T06:55:23;93506.75;;;22.68;66.61
20111;BME280;10216;42.658;23.248;2023-07-31T06:57:49;93499.47;;;22.92;65.47
20111;BME280;10216;42.658;23.248;2023-07-31T07:00:16;93505.91;;;23.06;64.59
20111;BME280;10216;42.658;23.248;2023-07-31T07:02:42;93496.53;;;23.37;64.03
20111;BME280;10216;42.658;23.248;2023-07-31T07:05:08;93490.78;;;23.62;62.33
20111;BME280;10216;42.658;23.248;2023-07-31T07:07:34;93485.41;;;23.79;61.99
20111;BME280;10216;42.658;23.248;2023-07-31T07:09:59;93476.91;;;23.66;60.97
20111;BME280;10216;42.658;23.248;2023-07-31T07:12:25;93475.03;;;23.94;61.95
20111;BME280;10216;42.658;23.248;2023-07-31T07:14:50;93481.66;;;24.06;60.62
20111;BME280;10216;42.658;23.248;2023-07-31T07:17:18;93475.09;;;23.99;60.17
20111;BME280;10216;42.658;23.248;2023-07-31T07:19:44;93492.03;;;23.86;60.18
20111;BME280;10216;42.658;23.248;2023-07-31T07:22:10;93488.59;;;23.86;61.70
20111;BME280;10216;42.658;23.248;2023-07-31T07:24:36;93497.41;;;24.06;60.58
20111;BME280;10216;42.658;23.248;2023-07-31T07:27:01;93490.34;;;24.07;60.71
20111;BME280;10216;42.658;23.248;2023-07-31T07:29:26;93496.56;;;23.96;60.44
20111;BME280;10216;42.658;23.248;2023-07-31T07:31:52;93495.63;;;24.12;58.66
20111;BME280;10216;42.658;23.248;2023-07-31T07:34:17;93491.03;;;24.29;59.53
20111;BME280;10216;42.658;23.248;2023-07-31T07:36:43;93507.25;;;24.21;57.85
20111;BME280;10216;42.658;23.248;2023-07-31T07:39:10;93496.91;;;24.46;59.11
20111;BME280;10216;42.658;23.248;2023-07-31T07:41:36;93509.91;;;24.73;57.21
20111;BME280;10216;42.658;23.248;2023-07-31T07:44:01;93498.31;;;24.64;56.47
20111;BME280;10216;42.658;23.248;2023-07-31T07:46:28;93495.44;;;24.66;56.72
20111;BME280;10216;42.658;23.248;2023-07-31T07:48:53;93502.19;;;25.04;56.72
20111;BME280;10216;42.658;23.248;2023-07-31T07:51:18;93508.00;;;25.11;55.97
20111;BME280;10216;42.658;23.248;2023-07-31T07:53:44;93500.16;;;25.21;56.65
20111;BME280;10216;42.658;23.248;2023-07-31T07:56:09;93505.16;;;25.38;56.25
20111;BME280;10216;42.658;23.248;2023-07-31T07:58:35;93506.75;;;25.39;54.74
20111;BME280;10216;42.658;23.248;2023-07-31T08:01:00;93505.16;;;25.27;54.88
20111;BME280;10216;42.658;23.248;2023-07-31T08:03:25;93507.25;;;25.31;55.55
20111;BME280;10216;42.658;23.248;2023-07-31T08:05:51;93511.31;;;25.63;54.78
20111;BME280;10216;42.658;23.248;2023-07-31T08:08:16;93505.81;;;25.85;54.27
20111;BME280;10216;42.658;23.248;2023-07-31T08:10:42;93515.53;;;25.90;53.42
20111;BME280;10216;42.658;23.248;2023-07-31T08:13:10;93510.53;;;26.19;52.48
20111;BME280;10216;42.658;23.248;2023-07-31T08:15:35;93517.13;;;26.41;51.84
20111;BME280;10216;42.658;23.248;2023-07-31T08:18:00;93513.41;;;26.58;50.78
20111;BME280;10216;42.658;23.248;2023-07-31T08:20:26;93505.06;;;27.10;51.21
20111;BME280;10216;42.658;23.248;2023-07-31T08:22:52;93508.59;;;26.90;49.81
20111;BME280;10216;42.658;23.248;2023-07-31T08:25:18;93521.59;;;26.11;52.01
20111;BME280;10216;42.658;23.248;2023-07-31T08:27:43;93520.53;;;26.01;52.30
20111;BME280;10216;42.658;23.248;2023-07-31T08:30:10;93511.53;;;25.57;52.55
20111;BME280;10216;42.658;23.248;2023-07-31T08:32:36;93506.53;;;25.55;54.23
20111;BME280;10216;42.658;23.248;2023-07-31T08:35:01;93509.75;;;26.13;51.44
20111;BME280;10216;42.658;23.248;2023-07-31T08:37:27;93517.63;;;26.03;51.98
20111;BME280;10216;42.658;23.248;2023-07-31T08:39:53;93515.53;;;26.05;51.84
20111;BME280;10216;42.658;23.248;2023-07-31T08:42:20;93505.66;;;25.19;53.11
20111;BME280;10216;42.658;23.248;2023-07-31T08:44:46;93505.44;;;25.36;54.07
20111;BME280;10216;42.658;23.248;2023-07-31T08:47:12;93518.94;;;24.93;54.71
20111;BME280;10216;42.658;23.248;2023-07-31T08:49:38;93509.84;;;24.58;55.16
20111;BME280;10216;42.658;23.248;2023-07-31T08:52:04;93506.59;;;24.41;55.73
20111;BME280;10216;42.658;23.248;2023-07-31T08:54:29;93514.16;;;24.32;55.56
20111;BME280;10216;42.658;23.248;2023-07-31T08:56:57;93505.81;;;25.85;52.82
20111;BME280;10216;42.658;23.248;2023-07-31T08:59:26;93505.91;;;26.95;49.71
20111;BME280;10216;42.658;23.248;2023-07-31T09:01:54;93512.13;;;25.99;51.62
20111;BME280;10216;42.658;23.248;2023-07-31T09:04:21;93512.38;;;25.62;50.59
20111;BME280;10216;42.658;23.248;2023-07-31T09:06:48;93511.81;;;25.65;51.38
20111;BME280;10216;42.658;23.248;2023-07-31T09:09:14;93511.03;;;25.80;52.65
20111;BME280;10216;42.658;23.248;2023-07-31T09:11:40;93508.19;;;25.92;51.53
20111;BME280;10216;42.658;23.248;2023-07-31T09:14:05;93503.16;;;25.70;51.89
20111;BME280;10216;42.658;23.248;2023-07-31T09:16:34;93502.00;;;26.93;50.03
20111;BME280;10216;42.658;23.248;2023-07-31T09:19:00;93494.63;;;28.51;46.01
20111;BME280;10216;42.658;23.248;2023-07-31T09:21:27;93484.44;;;29.10;45.11
20111;BME280;10216;42.658;23.248;2023-07-31T09:23:53;93494.53;;;28.85;44.66
20111;BME280;10216;42.658;23.248;2023-07-31T09:26:48;93495.44;;;28.75;44.91
20111;BME280;10216;42.658;23.248;2023-07-31T09:29:19;93494.94;;;28.15;45.55
20111;BME280;10216;42.658;23.248;2023-07-31T09:31:44;93489.38;;;27.83;46.84
20111;BME280;10216;42.658;23.248;2023-07-31T09:34:11;93480.97;;;28.39;45.79
20111;BME280;10216;42.658;23.248;2023-07-31T09:36:43;93490.47;;;30.10;43.07
20111;BME280;10216;42.658;23.248;2023-07-31T09:39:10;93484.91;;;30.98;41.72
20111;BME280;10216;42.658;23.248;2023-07-31T09:41:37;93482.91;;;32.17;39.93
20111;BME280;10216;42.658;23.248;2023-07-31T09:44:03;93491.69;;;30.91;40.29
20111;BME280;10216;42.658;23.248;2023-07-31T09:46:30;93486.94;;;29.82;42.91
20111;BME280;10216;42.658;23.248;2023-07-31T09:49:11;93484.66;;;28.95;43.10
20111;BME280;10216;42.658;23.248;2023-07-31T09:51:41;93480.09;;;28.77;45.03
20111;BME280;10216;42.658;23.248;2023-07-31T09:54:10;93480.94;;;29.39;43.13
20111;BME280;10216;42.658;23.248;2023-07-31T09:56:42;93472.69;;;28.50;44.68
20111;BME280;10216;42.658;23.248;2023-07-31T09:59:11;93473.75;;;27.52;45.58
20111;BME280;10216;42.658;23.248;2023-07-31T10:01:37;93472.22;;;27.41;46.91
20111;BME280;10216;42.658;23.248;2023-07-31T10:04:04;93463.56;;;27.75;45.21
20111;BME280;10216;42.658;23.248;2023-07-31T10:06:30;93469.41;;;29.48;43.23
20111;BME280;10216;42.658;23.248;2023-07-31T10:08:58;93472.94;;;31.01;39.62
20111;BME280;10216;42.658;23.248;2023-07-31T10:11:25;93475.84;;;30.12;41.50
20111;BME280;10216;42.658;23.248;2023-07-31T10:13:53;93473.06;;;30.69;40.90
20111;BME280;10216;42.658;23.248;2023-07-31T10:16:19;93469.94;;;31.79;38.52
20111;BME280;10216;42.658;23.248;2023-07-31T10:18:46;93463.88;;;32.94;37.74
20111;BME280;10216;42.658;23.248;2023-07-31T10:21:11;93466.59;;;33.11;37.65
20111;BME280;10216;42.658;23.248;2023-07-31T10:23:38;93473.00;;;33.76;36.46
20111;BME280;10216;42.658;23.248;2023-07-31T10:26:05;93476.25;;;34.24;34.89
20111;BME280;10216;42.658;23.248;2023-07-31T10:28:32;93467.31;;;32.94;35.78
20111;BME280;10216;42.658;23.248;2023-07-31T10:30:58;93460.94;;;33.04;36.39
20111;BME280;10216;42.658;23.248;2023-07-31T10:33:24;93458.84;;;32.22;37.05
20111;BME280;10216;42.658;23.248;2023-07-31T10:35:50;93455.69;;;33.39;36.51
20111;BME280;10216;42.658;23.248;2023-07-31T10:38:18;93459.50;;;34.79;35.41
20111;BME280;10216;42.658;23.248;2023-07-31T10:40:44;93461.50;;;34.35;34.73
20111;BME280;10216;42.658;23.248;2023-07-31T10:43:23;93458.81;;;32.44;37.00
20111;BME280;10216;42.658;23.248;2023-07-31T10:45:50;93452.78;;;33.01;36.49
20111;BME280;10216;42.658;23.248;2023-07-31T10:48:16;93444.75;;;32.75;35.73
20111;BME280;10216;42.658;23.248;2023-07-31T10:50:52;93444.31;;;31.97;36.99
20111;BME280;10216;42.658;23.248;2023-07-31T10:55:49;93449.78;;;35.04;32.48
20111;BME280;10216;42.658;23.248;2023-07-31T10:58:18;93448.38;;;35.98;32.90
20111;BME280;10216;42.658;23.248;2023-07-31T11:00:45;93446.22;;;35.50;31.64
20111;BME280;10216;42.658;23.248;2023-07-31T11:03:15;93440.09;;;33.72;34.33
20111;BME280;10216;42.658;23.248;2023-07-31T11:05:43;93427.88;;;32.57;35.22
20111;BME280;10216;42.658;23.248;2023-07-31T11:08:23;93423.31;;;31.51;36.38
20111;BME280;10216;42.658;23.248;2023-07-31T11:13:54;93433.91;;;35.07;32.94
20111;BME280;10216;42.658;23.248;2023-07-31T11:16:20;93441.84;;;35.45;31.24
20111;BME280;10216;42.658;23.248;2023-07-31T11:18:47;93429.66;;;33.18;33.92
20111;BME280;10216;42.658;23.248;2023-07-31T11:21:23;93431.91;;;31.93;35.12
20111;BME280;10216;42.658;23.248;2023-07-31T11:23:55;93423.94;;;32.77;36.00
20111;BME280;10216;42.658;23.248;2023-07-31T11:26:23;93416.28;;;34.85;33.51
20111;BME280;10216;42.658;23.248;2023-07-31T11:28:50;93430.09;;;36.33;31.95
20111;BME280;10216;42.658;23.248;2023-07-31T11:31:15;93431.81;;;36.17;31.30
20111;BME280;10216;42.658;23.248;2023-07-31T11:33:41;93433.97;;;35.49;32.30
20111;BME280;10216;42.658;23.248;2023-07-31T11:36:09;93430.31;;;36.73;30.62
20111;BME280;10216;42.658;23.248;2023-07-31T11:38:39;93427.66;;;37.74;30.26
20111;BME280;10216;42.658;23.248;2023-07-31T11:41:04;93422.41;;;35.98;31.61
20111;BME280;10216;42.658;23.248;2023-07-31T11:43:33;93414.66;;;35.73;33.13
20111;BME280;10216;42.658;23.248;2023-07-31T11:46:00;93419.88;;;36.47;30.92
20111;BME280;10216;42.658;23.248;2023-07-31T11:48:30;93426.13;;;37.48;29.83
20111;BME280;10216;42.658;23.248;2023-07-31T11:51:00;93422.75;;;38.79;28.54
20111;BME280;10216;42.658;23.248;2023-07-31T11:53:35;93428.91;;;38.79;28.77
20111;BME280;10216;42.658;23.248;2023-07-31T11:56:02;93429.00;;;38.67;28.00
20111;BME280;10216;42.658;23.248;2023-07-31T11:58:30;93423.72;;;37.99;29.34
20111;BME280;10216;42.658;23.248;2023-07-31T12:00:56;93416.78;;;38.70;28.21
20111;BME280;10216;42.658;23.248;2023-07-31T12:03:23;93427.94;;;38.72;28.57
20111;BME280;10216;42.658;23.248;2023-07-31T12:05:49;93425.63;;;39.01;28.11
20111;BME280;10216;42.658;23.248;2023-07-31T12:08:14;93417.69;;;40.36;27.53
20111;BME280;10216;42.658;23.248;2023-07-31T12:10:41;93413.31;;;39.35;28.42
20111;BME280;10216;42.658;23.248;2023-07-31T12:13:12;93405.13;;;38.34;28.45
20111;BME280;10216;42.658;23.248;2023-07-31T12:15:45;93401.59;;;39.09;28.62
20111;BME280;10216;42.658;23.248;2023-07-31T12:18:20;93398.06;;;38.73;28.21
20111;BME280;10216;42.658;23.248;2023-07-31T12:20:48;93401.56;;;37.59;29.07
20111;BME280;10216;42.658;23.248;2023-07-31T12:25:40;93387.72;;;37.44;29.66
20111;BME280;10216;42.658;23.248;2023-07-31T12:28:06;93385.88;;;36.03;31.78
20111;BME280;10216;42.658;23.248;2023-07-31T12:30:36;93381.13;;;33.64;33.98
20111;BME280;10216;42.658;23.248;2023-07-31T12:33:07;93377.97;;;33.11;35.07
20111;BME280;10216;42.658;23.248;2023-07-31T12:35:37;93383.09;;;32.81;35.33
20111;BME280;10216;42.658;23.248;2023-07-31T12:38:03;93379.97;;;32.88;35.29
20111;BME280;10216;42.658;23.248;2023-07-31T12:40:28;93391.44;;;32.49;36.09
20111;BME280;10216;42.658;23.248;2023-07-31T12:42:54;93382.56;;;32.00;36.27
20111;BME280;10216;42.658;23.248;2023-07-31T12:45:19;93375.03;;;31.49;36.42
20111;BME280;10216;42.658;23.248;2023-07-31T12:47:46;93373.72;;;31.02;37.56
20111;BME280;10216;42.658;23.248;2023-07-31T12:50:11;93370.53;;;30.64;38.41
20111;BME280;10216;42.658;23.248;2023-07-31T12:52:37;93369.25;;;31.25;38.86
20111;BME280;10216;42.658;23.248;2023-07-31T12:55:02;93363.66;;;31.71;37.78
20111;BME280;10216;42.658;23.248;2023-07-31T12:57:36;93364.16;;;32.74;36.79
20111;BME280;10216;42.658;23.248;2023-07-31T13:00:01;93351.66;;;31.73;37.21